createdAt,value
2023-08-02T00:28:02.505Z,1.35
2023-08-02T01:18:44.265Z,1.69
2023-08-02T02:18:23.586Z,1.50
2023-08-02T02:48:25.837Z,1.50
2023-08-02T03:18:27.759Z,1.60
2023-08-02T03:48:29.994Z,1.56
2023-08-02T04:18:32.549Z,1.49
2023-08-02T04:48:35.205Z,1.41
2023-08-02T05:18:37.859Z,1.81
2023-08-02T05:48:40.425Z,2.38
2023-08-02T06:18:43.021Z,2.59
2023-08-02T06:48:45.556Z,2.73
2023-08-02T07:18:49.115Z,2.57
2023-08-02T07:48:51.730Z,2.57
2023-08-02T08:18:54.697Z,2.51
2023-08-02T08:48:57.384Z,2.70
2023-08-02T09:19:00.001Z,2.61
2023-08-02T09:49:02.627Z,2.33
2023-08-02T10:54:19.774Z,1.89
2023-08-02T11:24:26.952Z,1.74
2023-08-02T11:54:25.817Z,1.45
2023-08-02T12:24:26.865Z,0.83
2023-08-02T12:54:29.457Z,0.44
2023-08-02T13:24:32.087Z,0.20
2023-08-02T13:54:34.583Z,0.18
2023-08-02T14:24:34.757Z,0.15
2023-08-02T15:08:32.963Z,0.16
2023-08-02T15:38:34.337Z,0.25
2023-08-02T16:08:36.989Z,0.41
2023-08-02T16:38:37.592Z,0.52
2023-08-02T17:08:40.776Z,0.56
2023-08-02T17:38:44.461Z,0.63
2023-08-02T18:08:49.032Z,0.84
2023-08-02T18:38:49.507Z,0.91
2023-08-02T19:08:52.030Z,0.68
2023-08-02T19:38:55.526Z,0.83
2023-08-02T20:08:58.052Z,1.15
2023-08-02T20:39:01.787Z,1.83
2023-08-02T21:09:04.654Z,0.75
2023-08-02T21:39:08.201Z,1.31
2023-08-02T22:55:34.256Z,1.12
2023-08-02T23:25:36.639Z,1.57
2023-08-02T23:55:39.460Z,1.64
